sensor_id;sensor_type;location;lat;lon;timestamp;P1;durP1;ratioP1;P2;durP2;ratioP2
50563;SDS011;36514;52.590;21.448;2023-07-29T07:22:14;1452.15;;;797.80;;
50563;SDS011;36514;52.590;21.448;2023-07-29T07:32:26;1014.82;;;646.04;;
50563;SDS011;36514;52.590;21.448;2023-07-29T07:42:32;994.94;;;768.12;;
50563;SDS011;36514;52.590;21.448;2023-07-29T07:52:38;1149.43;;;738.92;;
50563;SDS011;36514;52.590;21.448;2023-07-29T08:02:41;1001.85;;;754.18;;
50563;SDS011;36514;52.590;21.448;2023-07-29T08:12:18;1537.52;;;810.55;;
50563;SDS011;36514;52.590;21.448;2023-07-29T08:22:16;1693.02;;;855.35;;
50563;SDS011;36514;52.590;21.448;2023-07-29T08:32:24;1586.25;;;796.90;;
50563;SDS011;36514;52.590;21.448;2023-07-29T08:42:17;1476.70;;;811.14;;
50563;SDS011;36514;52.590;21.448;2023-07-29T08:52:39;970.30;;;721.98;;
50563;SDS011;36514;52.590;21.448;2023-07-29T09:02:45;792.64;;;716.38;;
50563;SDS011;36514;52.590;21.448;2023-07-29T09:12:21;1264.10;;;785.24;;
50563;SDS011;36514;52.590;21.448;2023-07-29T09:22:23;1464.77;;;769.25;;
50563;SDS011;36514;52.590;21.448;2023-07-29T09:32:20;1152.75;;;778.68;;
50563;SDS011;36514;52.590;21.448;2023-07-29T09:42:33;1107.74;;;626.51;;
50563;SDS011;36514;52.590;21.448;2023-07-29T09:52:36;759.95;;;685.76;;
50563;SDS011;36514;52.590;21.448;2023-07-29T10:02:43;816.05;;;732.73;;
50563;SDS011;36514;52.590;21.448;2023-07-29T10:12:22;780.86;;;707.85;;
50563;SDS011;36514;52.590;21.448;2023-07-29T10:22:35;815.06;;;732.73;;
50563;SDS011;36514;52.590;21.448;2023-07-29T10:32:30;890.61;;;758.67;;
50563;SDS011;36514;52.590;21.448;2023-07-29T10:42:23;1311.12;;;846.09;;
50563;SDS011;36514;52.590;21.448;2023-07-29T11:02:35;1484.45;;;853.29;;
50563;SDS011;36514;52.590;21.448;2023-07-29T11:12:46;835.10;;;751.89;;
50563;SDS011;36514;52.590;21.448;2023-07-29T11:22:48;820.20;;;716.61;;
50563;SDS011;36514;52.590;21.448;2023-07-29T11:32:32;1259.96;;;807.42;;
50563;SDS011;36514;52.590;21.448;2023-07-29T11:42:07;1470.66;;;840.45;;
50563;SDS011;36514;52.590;21.448;2023-07-29T11:52:21;1105.91;;;813.39;;
50563;SDS011;36514;52.590;21.448;2023-07-29T12:02:27;900.80;;;800.15;;
50563;SDS011;36514;52.590;21.448;2023-07-29T12:12:44;655.61;;;601.45;;
50563;SDS011;36514;52.590;21.448;2023-07-29T12:22:44;1274.60;;;792.40;;
50563;SDS011;36514;52.590;21.448;2023-07-29T12:32:46;1149.71;;;806.45;;
50563;SDS011;36514;52.590;21.448;2023-07-29T12:42:45;951.36;;;782.62;;
50563;SDS011;36514;52.590;21.448;2023-07-29T12:52:41;1999.90;;;854.55;;
50563;SDS011;36514;52.590;21.448;2023-07-29T13:02:42;1063.54;;;811.72;;
50563;SDS011;36514;52.590;21.448;2023-07-29T13:12:38;1412.67;;;829.00;;
50563;SDS011;36514;52.590;21.448;2023-07-29T13:22:33;1750.24;;;840.68;;
50563;SDS011;36514;52.590;21.448;2023-07-29T13:32:15;1453.95;;;843.40;;
50563;SDS011;36514;52.590;21.448;2023-07-29T13:42:04;1654.05;;;669.34;;
50563;SDS011;36514;52.590;21.448;2023-07-29T13:52:07;1768.87;;;840.94;;
50563;SDS011;36514;52.590;21.448;2023-07-29T14:02:05;1592.05;;;809.08;;
50563;SDS011;36514;52.590;21.448;2023-07-29T14:12:12;1627.24;;;809.41;;
50563;SDS011;36514;52.590;21.448;2023-07-29T14:22:07;1320.45;;;808.78;;
50563;SDS011;36514;52.590;21.448;2023-07-29T14:32:03;1429.36;;;838.93;;
50563;SDS011;36514;52.590;21.448;2023-07-29T14:41:57;1755.45;;;558.27;;
50563;SDS011;36514;52.590;21.448;2023-07-29T14:51:46;1620.05;;;803.35;;
50563;SDS011;36514;52.590;21.448;2023-07-29T15:01:52;1714.85;;;829.68;;
50563;SDS011;36514;52.590;21.448;2023-07-29T15:11:49;1609.75;;;687.94;;
50563;SDS011;36514;52.590;21.448;2023-07-29T15:21:36;1329.32;;;492.05;;
50563;SDS011;36514;52.590;21.448;2023-07-29T15:31:32;1608.59;;;456.99;;
50563;SDS011;36514;52.590;21.448;2023-07-29T15:41:33;1541.27;;;446.85;;
50563;SDS011;36514;52.590;21.448;2023-07-29T15:51:28;1538.60;;;592.19;;
50563;SDS011;36514;52.590;21.448;2023-07-29T16:01:22;1556.21;;;689.49;;
50563;SDS011;36514;52.590;21.448;2023-07-29T16:11:19;1792.18;;;819.54;;
50563;SDS011;36514;52.590;21.448;2023-07-29T16:21:21;1818.29;;;825.38;;
50563;SDS011;36514;52.590;21.448;2023-07-29T16:31:17;1784.86;;;799.32;;
50563;SDS011;36514;52.590;21.448;2023-07-29T16:41:15;1798.48;;;828.73;;
50563;SDS011;36514;52.590;21.448;2023-07-29T16:51:12;1713.40;;;779.22;;
50563;SDS011;36514;52.590;21.448;2023-07-29T17:01:07;1841.19;;;868.86;;
50563;SDS011;36514;52.590;21.448;2023-07-29T17:10:59;1878.02;;;913.40;;
50563;SDS011;36514;52.590;21.448;2023-07-29T17:20:54;1338.42;;;946.39;;
50563;SDS011;36514;52.590;21.448;2023-07-29T17:30:53;1337.56;;;941.20;;
50563;SDS011;36514;52.590;21.448;2023-07-29T17:40:47;1192.51;;;961.19;;
50563;SDS011;36514;52.590;21.448;2023-07-29T17:50:45;1024.28;;;896.55;;
50563;SDS011;36514;52.590;21.448;2023-07-29T18:00:41;1168.80;;;958.67;;
50563;SDS011;36514;52.590;21.448;2023-07-29T18:10:40;1086.42;;;887.80;;
50563;SDS011;36514;52.590;21.448;2023-07-29T18:20:36;1258.19;;;962.53;;
50563;SDS011;36514;52.590;21.448;2023-07-29T18:30:32;1221.91;;;934.85;;
50563;SDS011;36514;52.590;21.448;2023-07-29T18:40:29;1404.74;;;943.93;;
50563;SDS011;36514;52.590;21.448;2023-07-29T18:50:27;1362.97;;;911.64;;
50563;SDS011;36514;52.590;21.448;2023-07-29T19:00:23;1383.15;;;897.45;;
50563;SDS011;36514;52.590;21.448;2023-07-29T19:10:20;1249.36;;;878.32;;
50563;SDS011;36514;52.590;21.448;2023-07-29T20:08:18;1193.52;;;756.18;;
50563;SDS011;36514;52.590;21.448;2023-07-29T20:18:16;1489.37;;;932.27;;
50563;SDS011;36514;52.590;21.448;2023-07-29T20:28:14;1226.67;;;859.95;;
50563;SDS011;36514;52.590;21.448;2023-07-29T20:38:11;1246.85;;;849.64;;
50563;SDS011;36514;52.590;21.448;2023-07-29T20:48:08;1311.45;;;925.76;;
50563;SDS011;36514;52.590;21.448;2023-07-29T20:58:05;1331.47;;;911.72;;
50563;SDS011;36514;52.590;21.448;2023-07-29T21:08:03;1098.83;;;801.78;;
